createdAt,value
2017-02-10T00:00:15.940Z,941.6
2017-02-10T00:01:24.032Z,941.6
2017-02-10T00:02:32.179Z,941.6
2017-02-10T00:03:40.210Z,941.6
2017-02-10T00:04:48.658Z,941.6
2017-02-10T00:05:56.379Z,941.6
2017-02-10T00:07:04.475Z,941.6
2017-02-10T00:08:12.621Z,941.6
2017-02-10T00:09:20.655Z,941.6
2017-02-10T00:10:28.746Z,941.7
2017-02-10T00:11:36.839Z,941.7
2017-02-10T00:12:44.937Z,941.7
2017-02-10T00:13:53.271Z,941.6
2017-02-10T00:15:01.201Z,941.6
2017-02-10T00:16:09.272Z,941.6
2017-02-10T00:17:17.296Z,941.7
2017-02-10T00:18:25.391Z,941.7
2017-02-10T00:19:33.534Z,941.6
2017-02-10T00:20:41.811Z,941.6
2017-02-10T00:21:49.652Z,941.6
2017-02-10T00:22:57.746Z,941.6
2017-02-10T00:24:05.838Z,941.6
2017-02-10T00:25:13.986Z,941.6
2017-02-10T00:26:22.092Z,941.6
2017-02-10T00:27:30.104Z,941.6
2017-02-10T00:28:38.181Z,941.6
2017-02-10T00:29:46.267Z,941.6
2017-02-10T00:30:54.607Z,941.6
2017-02-10T00:32:02.445Z,941.6
2017-02-10T00:33:10.538Z,941.6
2017-02-10T00:34:18.629Z,941.6
2017-02-10T00:35:26.716Z,941.5
2017-02-10T00:36:34.885Z,941.5
2017-02-10T00:37:42.912Z,941.6
2017-02-10T00:38:50.973Z,941.6
2017-02-10T00:39:59.064Z,941.6
2017-02-10T00:41:07.218Z,941.6
2017-02-10T00:42:15.452Z,941.6
2017-02-10T00:43:23.324Z,941.6
2017-02-10T00:44:31.408Z,941.6
2017-02-10T00:45:39.497Z,941.6
2017-02-10T00:46:47.587Z,941.6
2017-02-10T00:47:55.923Z,941.6
2017-02-10T00:49:03.763Z,941.6
2017-02-10T00:50:11.850Z,941.6
2017-02-10T00:51:19.942Z,941.6
2017-02-10T00:52:28.153Z,941.6
2017-02-10T00:53:36.176Z,941.5
2017-02-10T00:54:44.211Z,941.6
2017-02-10T00:55:52.296Z,941.6
2017-02-10T00:57:00.473Z,941.6
2017-02-10T00:58:08.637Z,941.6
2017-02-10T00:59:16.829Z,941.6
2017-02-10T01:00:24.652Z,941.6
2017-02-10T01:01:32.734Z,941.6
2017-02-10T01:02:40.824Z,941.6
2017-02-10T01:03:48.910Z,941.6
2017-02-10T01:04:59.207Z,941.6
2017-02-10T01:06:05.089Z,941.6
2017-02-10T01:07:13.176Z,941.6
2017-02-10T01:08:21.638Z,941.6
2017-02-10T01:09:29.355Z,941.6
2017-02-10T01:10:37.506Z,941.6
2017-02-10T01:11:45.535Z,941.6
2017-02-10T01:12:53.616Z,941.6
2017-02-10T01:14:01.759Z,941.6
2017-02-10T01:15:09.855Z,941.6
2017-02-10T01:16:17.949Z,941.7
2017-02-10T01:17:25.984Z,941.6
2017-02-10T01:18:34.076Z,941.6
2017-02-10T01:19:42.153Z,941.6
2017-02-10T01:20:50.245Z,941.6
2017-02-10T01:21:58.401Z,941.6
2017-02-10T01:23:06.430Z,941.6
2017-02-10T01:24:14.566Z,941.6
2017-02-10T01:25:22.660Z,941.6
2017-02-10T01:26:30.694Z,941.7
2017-02-10T01:27:39.040Z,941.6
2017-02-10T01:28:46.871Z,941.6
2017-02-10T01:29:54.965Z,941.6
2017-02-10T01:31:03.050Z,941.7
2017-02-10T01:32:11.319Z,941.6
2017-02-10T01:33:19.284Z,941.7
2017-02-10T01:34:27.316Z,941.6
2017-02-10T01:35:35.404Z,941.6
2017-02-10T01:36:43.491Z,941.6
2017-02-10T01:37:51.577Z,941.6
2017-02-10T01:38:59.913Z,941.6
2017-02-10T01:40:08.001Z,941.6
2017-02-10T01:41:16.011Z,941.6
2017-02-10T01:42:23.925Z,941.6
2017-02-10T01:43:32.007Z,941.6
2017-02-10T01:44:40.159Z,941.6
2017-02-10T01:45:48.189Z,941.6
2017-02-10T01:46:56.277Z,941.6
2017-02-10T01:48:04.358Z,941.6
2017-02-10T01:49:12.453Z,941.5
2017-02-10T01:50:20.788Z,941.5
2017-02-10T01:51:28.713Z,941.5
2017-02-10T01:52:36.708Z,941.5
2017-02-10T01:53:44.806Z,941.5
2017-02-10T01:54:52.884Z,941.5
2017-02-10T01:56:01.026Z,941.5
2017-02-10T01:57:09.059Z,941.4
2017-02-10T01:58:17.149Z,941.5
2017-02-10T01:59:25.230Z,941.4
2017-02-10T02:00:33.321Z,941.4
2017-02-10T02:01:41.668Z,941.4
2017-02-10T02:02:49.503Z,941.4
2017-02-10T02:03:57.585Z,941.4
2017-02-10T02:05:05.682Z,941.4
2017-02-10T02:06:13.764Z,941.4
2017-02-10T02:07:22.298Z,941.4
2017-02-10T02:08:29.945Z,941.4
2017-02-10T02:09:38.030Z,941.4
2017-02-10T02:10:46.131Z,941.3
2017-02-10T02:11:54.258Z,941.3
2017-02-10T02:13:02.371Z,941.4
2017-02-10T02:14:10.388Z,941.3
2017-02-10T02:15:18.475Z,941.3
2017-02-10T02:16:26.561Z,941.3
2017-02-10T02:17:34.816Z,941.2
2017-02-10T02:18:42.979Z,941.2
2017-02-10T02:19:50.820Z,941.2
2017-02-10T02:20:58.912Z,941.2
2017-02-10T02:22:07.000Z,941.2
2017-02-10T02:23:15.080Z,941.2
2017-02-10T02:24:23.270Z,941.3
2017-02-10T02:25:31.257Z,941.3
2017-02-10T02:26:39.343Z,941.3
2017-02-10T02:27:47.675Z,941.3
2017-02-10T02:28:55.517Z,941.2
2017-02-10T02:30:03.660Z,941.3
2017-02-10T02:31:11.688Z,941.2
2017-02-10T02:32:19.779Z,941.2
2017-02-10T02:33:27.865Z,941.2
2017-02-10T02:34:36.084Z,941.2
2017-02-10T02:35:44.092Z,941.2
2017-02-10T02:36:52.129Z,941.2
2017-02-10T02:38:00.214Z,941.2
2017-02-10T02:39:08.296Z,941.1
2017-02-10T02:40:16.726Z,941.2
2017-02-10T02:41:24.534Z,941.1
2017-02-10T02:42:32.904Z,941.1
2017-02-10T02:43:40.904Z,941.2
2017-02-10T02:44:48.743Z,941.1
2017-02-10T02:45:56.982Z,941.1
2017-02-10T02:47:04.969Z,941.1
2017-02-10T02:48:13.001Z,941.1
2017-02-10T02:49:21.680Z,941.1
2017-02-10T02:50:29.175Z,941.1
2017-02-10T02:51:37.257Z,941.1
2017-02-10T02:52:45.414Z,941.1
2017-02-10T02:53:53.444Z,941.1
2017-02-10T02:55:01.529Z,941.1
2017-02-10T02:56:09.757Z,941.1
2017-02-10T02:57:17.873Z,941.1
2017-02-10T02:58:26.038Z,941.1
2017-02-10T02:59:33.936Z,941.1
2017-02-10T03:00:41.971Z,941.0
2017-02-10T03:01:50.063Z,941.0
2017-02-10T03:02:58.144Z,941.0
2017-02-10T03:04:06.295Z,941.0
2017-02-10T03:05:14.323Z,941.0
2017-02-10T03:06:22.407Z,941.0
2017-02-10T03:07:30.600Z,941.0
2017-02-10T03:08:38.588Z,941.0
2017-02-10T03:09:46.738Z,941.0
2017-02-10T03:10:54.773Z,940.9
2017-02-10T03:12:02.867Z,941.0
2017-02-10T03:13:10.957Z,941.0
2017-02-10T03:14:19.045Z,940.9
2017-02-10T03:15:27.379Z,940.9
2017-02-10T03:16:35.217Z,940.9
2017-02-10T03:17:43.298Z,940.9
2017-02-10T03:18:51.385Z,940.9
2017-02-10T03:19:59.477Z,940.9
2017-02-10T03:21:07.622Z,940.9
2017-02-10T03:22:15.831Z,941.0
2017-02-10T03:23:23.908Z,940.9
2017-02-10T03:24:31.823Z,940.9
2017-02-10T03:25:39.912Z,940.9
2017-02-10T03:26:48.052Z,940.9
2017-02-10T03:27:56.088Z,940.9
2017-02-10T03:29:04.174Z,940.9
2017-02-10T03:30:12.256Z,940.9
2017-02-10T03:31:20.599Z,941.0
2017-02-10T03:32:28.505Z,940.9
2017-02-10T03:33:36.647Z,940.9
2017-02-10T03:34:44.611Z,940.9
2017-02-10T03:35:52.877Z,940.9
2017-02-10T03:37:00.786Z,940.9
2017-02-10T03:38:08.943Z,940.9
2017-02-10T03:39:16.970Z,940.9
2017-02-10T03:40:25.051Z,940.9
2017-02-10T03:41:33.125Z,940.9
2017-02-10T03:42:41.214Z,940.9
2017-02-10T03:43:49.438Z,940.9
2017-02-10T03:44:57.458Z,940.9
2017-02-10T03:46:05.481Z,940.9
2017-02-10T03:47:13.830Z,941.0
2017-02-10T03:48:21.658Z,940.9
2017-02-10T03:49:29.801Z,940.9
2017-02-10T03:50:37.895Z,940.9
2017-02-10T03:51:45.919Z,940.9
2017-02-10T03:52:54.042Z,940.9
2017-02-10T03:54:02.094Z,940.9
2017-02-10T03:55:10.439Z,940.8
2017-02-10T03:56:18.269Z,940.9
2017-02-10T03:57:26.355Z,940.8
2017-02-10T03:58:34.445Z,940.9
2017-02-10T03:59:42.535Z,940.9
2017-02-10T04:00:50.954Z,940.9
2017-02-10T04:01:58.778Z,940.9
2017-02-10T04:03:06.853Z,940.8
2017-02-10T04:04:14.888Z,940.9
2017-02-10T04:05:22.975Z,940.8
2017-02-10T04:06:31.122Z,940.8
2017-02-10T04:07:39.157Z,940.8
2017-02-10T04:08:47.238Z,940.8
2017-02-10T04:09:55.329Z,940.9
2017-02-10T04:11:03.425Z,940.9
2017-02-10T04:12:11.579Z,940.9
2017-02-10T04:13:19.597Z,940.9
2017-02-10T04:14:27.687Z,940.9
2017-02-10T04:15:35.776Z,940.9
2017-02-10T04:16:43.864Z,940.9
2017-02-10T04:17:52.095Z,940.9
2017-02-10T04:19:00.290Z,940.9
2017-02-10T04:20:08.124Z,940.9
2017-02-10T04:21:16.215Z,940.9
2017-02-10T04:22:24.303Z,940.9
2017-02-10T04:23:32.446Z,940.9
2017-02-10T04:24:40.481Z,940.8
2017-02-10T04:25:48.576Z,940.9
2017-02-10T04:26:56.667Z,940.9
2017-02-10T04:28:04.888Z,940.9
2017-02-10T04:29:13.082Z,940.9
2017-02-10T04:30:20.930Z,940.9
2017-02-10T04:31:29.017Z,940.9
2017-02-10T04:32:37.099Z,940.9
2017-02-10T04:33:45.189Z,940.8
2017-02-10T04:34:53.529Z,940.9
2017-02-10T04:36:01.368Z,940.9
2017-02-10T04:37:09.454Z,940.9
2017-02-10T04:38:17.656Z,940.9
2017-02-10T04:39:25.734Z,940.9
2017-02-10T04:40:33.770Z,940.9
2017-02-10T04:41:41.796Z,940.9
2017-02-10T04:42:49.884Z,940.9
2017-02-10T04:43:57.971Z,940.9
2017-02-10T04:45:06.080Z,940.9
2017-02-10T04:46:14.398Z,940.9
2017-02-10T04:47:22.237Z,940.9
2017-02-10T04:48:30.324Z,940.9
2017-02-10T04:49:38.410Z,940.9
2017-02-10T04:50:46.553Z,940.9
2017-02-10T04:51:54.704Z,940.8
2017-02-10T04:53:02.662Z,940.9
2017-02-10T04:54:10.755Z,940.8
2017-02-10T04:55:18.839Z,940.8
2017-02-10T04:56:26.923Z,940.8
2017-02-10T04:57:35.262Z,940.9
2017-02-10T04:58:43.105Z,940.8
2017-02-10T04:59:51.324Z,940.8
2017-02-10T05:00:59.415Z,940.9
2017-02-10T05:02:07.367Z,940.8
2017-02-10T05:03:15.514Z,940.8
2017-02-10T05:04:23.539Z,940.8
2017-02-10T05:05:31.623Z,940.8
2017-02-10T05:06:40.007Z,940.7
2017-02-10T05:07:47.801Z,940.7
2017-02-10T05:08:55.945Z,940.7
2017-02-10T05:10:03.977Z,940.7
2017-02-10T05:11:12.236Z,940.7
2017-02-10T05:12:20.153Z,940.7
2017-02-10T05:13:28.239Z,940.7
2017-02-10T05:14:36.387Z,940.7
2017-02-10T05:15:44.420Z,940.7
2017-02-10T05:16:52.507Z,940.7
2017-02-10T05:18:00.610Z,940.7
2017-02-10T05:19:08.681Z,940.7
2017-02-10T05:20:16.820Z,940.7
2017-02-10T05:21:25.027Z,940.7
2017-02-10T05:22:33.156Z,940.6
2017-02-10T05:23:41.033Z,940.7
2017-02-10T05:24:49.121Z,940.7
2017-02-10T05:25:57.475Z,940.7
2017-02-10T05:27:05.314Z,940.7
2017-02-10T05:28:13.397Z,940.7
2017-02-10T05:29:21.487Z,940.7
2017-02-10T05:30:29.577Z,940.6
2017-02-10T05:31:37.718Z,940.6
2017-02-10T05:32:45.845Z,940.7
2017-02-10T05:33:53.844Z,940.7
2017-02-10T05:35:01.930Z,940.7
2017-02-10T05:36:10.016Z,940.7
2017-02-10T05:37:18.360Z,940.7
2017-02-10T05:38:26.261Z,940.7
2017-02-10T05:39:34.291Z,940.7
2017-02-10T05:40:42.371Z,940.7
2017-02-10T05:41:50.463Z,940.6
2017-02-10T05:42:58.604Z,940.6
2017-02-10T05:44:06.632Z,940.7
2017-02-10T05:45:14.721Z,940.7
2017-02-10T05:46:22.809Z,940.7
2017-02-10T05:47:30.897Z,940.7
2017-02-10T05:48:39.349Z,940.7
2017-02-10T05:49:47.068Z,940.7
2017-02-10T05:50:55.156Z,940.8
2017-02-10T05:52:03.242Z,940.8
2017-02-10T05:53:11.335Z,940.7
2017-02-10T05:54:19.478Z,940.9
2017-02-10T05:55:27.505Z,940.9
2017-02-10T05:56:35.591Z,940.9
2017-02-10T05:57:43.683Z,940.8
2017-02-10T05:58:51.840Z,940.8
2017-02-10T06:00:00.146Z,940.8
2017-02-10T06:01:07.950Z,940.8
2017-02-10T06:02:16.034Z,940.9
2017-02-10T06:03:24.319Z,940.9
2017-02-10T06:04:32.205Z,940.9
2017-02-10T06:05:40.348Z,940.8
2017-02-10T06:06:48.374Z,940.9
2017-02-10T06:07:56.460Z,940.9
2017-02-10T06:09:04.557Z,940.8
2017-02-10T06:10:12.971Z,940.8
2017-02-10T06:11:20.779Z,940.8
2017-02-10T06:12:28.809Z,940.8
2017-02-10T06:13:36.901Z,940.8
2017-02-10T06:14:44.988Z,940.8
2017-02-10T06:15:53.075Z,940.8
2017-02-10T06:17:01.220Z,940.7
2017-02-10T06:18:09.254Z,940.7
2017-02-10T06:19:17.337Z,940.7
2017-02-10T06:20:25.464Z,940.7
2017-02-10T06:21:33.671Z,940.8
2017-02-10T06:22:41.851Z,940.8
2017-02-10T06:23:49.685Z,940.9
2017-02-10T06:24:57.782Z,940.8
2017-02-10T06:26:05.924Z,940.8
2017-02-10T06:27:13.954Z,940.9
2017-02-10T06:28:22.287Z,940.9
2017-02-10T06:29:30.125Z,940.9
2017-02-10T06:30:38.214Z,940.9
2017-02-10T06:31:46.367Z,940.9
2017-02-10T06:32:54.387Z,940.9
2017-02-10T06:34:02.594Z,940.9
2017-02-10T06:35:10.562Z,940.9
2017-02-10T06:36:18.651Z,940.9
2017-02-10T06:37:26.748Z,940.9
2017-02-10T06:38:34.836Z,941.0
2017-02-10T06:39:42.965Z,941.0
2017-02-10T06:40:51.001Z,941.0
2017-02-10T06:41:59.476Z,941.0
2017-02-10T06:43:07.288Z,941.0
2017-02-10T06:44:15.256Z,941.0
2017-02-10T06:45:23.403Z,941.0
2017-02-10T06:46:31.603Z,941.0
2017-02-10T06:47:39.517Z,941.0
2017-02-10T06:48:47.606Z,941.1
2017-02-10T06:49:55.690Z,941.1
2017-02-10T06:51:04.029Z,941.1
2017-02-10T06:52:11.868Z,941.1
2017-02-10T06:53:20.097Z,941.1
2017-02-10T06:54:28.041Z,941.1
2017-02-10T06:55:36.131Z,941.1
2017-02-10T06:56:44.275Z,941.2
2017-02-10T06:57:52.360Z,941.2
2017-02-10T06:59:00.386Z,941.2
2017-02-10T07:00:08.479Z,941.2
2017-02-10T07:01:16.565Z,941.3
2017-02-10T07:02:24.896Z,941.3
2017-02-10T07:03:32.903Z,941.2
2017-02-10T07:04:40.821Z,941.3
2017-02-10T07:05:48.908Z,941.3
2017-02-10T07:06:56.991Z,941.3
2017-02-10T07:08:05.136Z,941.4
2017-02-10T07:09:13.172Z,941.4
2017-02-10T07:10:21.306Z,941.4
2017-02-10T07:11:29.335Z,941.4
2017-02-10T07:12:37.425Z,941.5
2017-02-10T07:13:45.759Z,941.5
2017-02-10T07:14:53.597Z,941.5
2017-02-10T07:16:01.679Z,941.6
2017-02-10T07:17:09.767Z,941.6
2017-02-10T07:18:17.851Z,941.5
2017-02-10T07:19:25.996Z,941.5
2017-02-10T07:20:34.116Z,941.5
2017-02-10T07:21:42.198Z,941.5
2017-02-10T07:22:50.315Z,941.5
2017-02-10T07:23:58.295Z,941.5
2017-02-10T07:25:06.635Z,941.5
2017-02-10T07:26:14.474Z,941.5
2017-02-10T07:27:22.554Z,941.5
2017-02-10T07:28:30.645Z,941.5
2017-02-10T07:29:38.784Z,941.5
2017-02-10T07:30:47.059Z,941.5
2017-02-10T07:31:55.041Z,941.5
2017-02-10T07:33:03.013Z,941.5
2017-02-10T07:34:11.079Z,941.5
2017-02-10T07:35:19.172Z,941.5
2017-02-10T07:36:27.311Z,941.5
2017-02-10T07:37:35.422Z,941.5
2017-02-10T07:38:43.436Z,941.6
2017-02-10T07:39:51.521Z,941.6
2017-02-10T07:40:59.609Z,941.6
2017-02-10T07:42:07.942Z,941.6
2017-02-10T07:43:15.929Z,941.6
2017-02-10T07:44:23.870Z,941.6
2017-02-10T07:45:32.012Z,941.6
2017-02-10T07:46:40.041Z,941.6
2017-02-10T07:47:48.385Z,941.6
2017-02-10T07:48:56.226Z,941.6
2017-02-10T07:50:04.310Z,941.6
2017-02-10T07:51:12.400Z,941.7
2017-02-10T07:52:20.491Z,941.7
2017-02-10T07:53:28.964Z,941.7
2017-02-10T07:54:36.694Z,941.7
2017-02-10T07:55:44.754Z,941.7
2017-02-10T07:56:52.850Z,941.8
2017-02-10T07:58:00.941Z,941.8
2017-02-10T07:59:09.282Z,941.7
2017-02-10T08:00:17.165Z,941.7
2017-02-10T08:01:25.269Z,941.7
2017-02-10T08:02:33.293Z,941.7
2017-02-10T08:03:41.387Z,941.8
2017-02-10T08:04:49.720Z,941.8
2017-02-10T08:05:57.555Z,941.8
2017-02-10T08:07:05.651Z,941.8
2017-02-10T08:08:13.737Z,941.9
2017-02-10T08:09:21.965Z,941.8
2017-02-10T08:10:30.220Z,941.9
2017-02-10T08:11:38.014Z,941.9
2017-02-10T08:12:46.091Z,941.9
2017-02-10T08:13:54.182Z,941.9
2017-02-10T08:15:02.277Z,941.8
2017-02-10T08:16:10.734Z,941.8
2017-02-10T08:17:18.521Z,941.8
2017-02-10T08:18:26.549Z,941.8
2017-02-10T08:19:34.636Z,941.8
2017-02-10T08:20:42.725Z,941.8
2017-02-10T08:21:50.878Z,941.8
2017-02-10T08:22:58.917Z,941.8
2017-02-10T08:24:07.110Z,941.8
2017-02-10T08:25:15.176Z,941.8
2017-02-10T08:26:23.179Z,941.9
2017-02-10T08:27:31.520Z,941.8
2017-02-10T08:28:39.358Z,941.8
2017-02-10T08:29:47.441Z,941.8
2017-02-10T08:30:55.531Z,941.7
2017-02-10T08:32:03.620Z,941.8
2017-02-10T08:33:11.953Z,941.8
2017-02-10T08:34:19.791Z,941.8
2017-02-10T08:35:27.940Z,941.8
2017-02-10T08:36:35.973Z,941.8
2017-02-10T08:37:44.056Z,941.8
2017-02-10T08:38:52.208Z,941.8
2017-02-10T08:40:00.626Z,941.8
2017-02-10T08:41:08.328Z,941.8
2017-02-10T08:42:16.418Z,941.8
2017-02-10T08:43:24.503Z,941.8
2017-02-10T08:44:32.835Z,941.8
2017-02-10T08:45:40.677Z,941.8
2017-02-10T08:46:48.892Z,941.8
2017-02-10T08:47:56.852Z,941.8
2017-02-10T08:49:04.993Z,941.8
2017-02-10T08:50:13.079Z,941.8
2017-02-10T08:51:21.109Z,941.8
2017-02-10T08:52:29.194Z,941.8
2017-02-10T08:53:37.274Z,941.8
2017-02-10T08:54:45.368Z,941.8
2017-02-10T08:55:53.511Z,941.8
2017-02-10T08:57:01.652Z,941.8
2017-02-10T08:58:09.630Z,941.9
2017-02-10T08:59:17.722Z,941.9
2017-02-10T09:00:25.805Z,941.9
2017-02-10T09:01:33.957Z,941.9
2017-02-10T09:02:41.985Z,941.9
2017-02-10T09:03:50.074Z,941.9
2017-02-10T09:04:58.212Z,941.9
2017-02-10T09:06:06.246Z,941.9
2017-02-10T09:07:14.583Z,941.9
2017-02-10T09:08:22.414Z,941.9
2017-02-10T09:09:30.500Z,941.9
2017-02-10T09:10:38.593Z,941.9
2017-02-10T09:11:46.683Z,941.9
2017-02-10T09:12:54.885Z,941.9
2017-02-10T09:14:02.853Z,942.0
2017-02-10T09:15:10.938Z,942.0
2017-02-10T09:16:19.021Z,942.0
2017-02-10T09:17:27.101Z,942.0
2017-02-10T09:18:35.501Z,942.0
2017-02-10T09:19:43.324Z,942.0
2017-02-10T09:20:51.416Z,942.0
2017-02-10T09:21:59.453Z,942.0
2017-02-10T09:23:07.537Z,942.0
2017-02-10T09:24:15.880Z,942.0
2017-02-10T09:25:23.704Z,942.0
2017-02-10T09:26:31.795Z,942.1
2017-02-10T09:27:39.931Z,942.1
2017-02-10T09:28:47.962Z,942.1
2017-02-10T09:29:56.302Z,942.0
2017-02-10T09:31:04.144Z,942.0
2017-02-10T09:32:12.219Z,942.0
2017-02-10T09:33:20.307Z,942.0
2017-02-10T09:34:28.423Z,942.0
2017-02-10T09:35:36.733Z,942.0
2017-02-10T09:36:44.621Z,942.0
2017-02-10T09:37:52.654Z,942.0
2017-02-10T09:39:00.742Z,942.1
2017-02-10T09:40:08.821Z,942.0
2017-02-10T09:41:16.962Z,942.1
2017-02-10T09:42:24.999Z,942.1
2017-02-10T09:43:33.081Z,942.0
2017-02-10T09:44:41.259Z,942.0
2017-02-10T09:45:49.256Z,942.0
2017-02-10T09:46:57.397Z,942.0
2017-02-10T09:48:05.425Z,942.0
2017-02-10T09:49:13.663Z,942.0
2017-02-10T09:50:21.613Z,942.0
2017-02-10T09:51:29.701Z,942.0
2017-02-10T09:52:38.029Z,942.0
2017-02-10T09:53:45.870Z,942.1
2017-02-10T09:54:53.954Z,942.1
2017-02-10T09:56:02.130Z,942.1
2017-02-10T09:57:10.123Z,942.1
2017-02-10T09:58:18.980Z,942.1
2017-02-10T09:59:26.293Z,942.1
2017-02-10T10:00:34.372Z,942.1
2017-02-10T10:01:42.468Z,942.1
2017-02-10T10:02:50.638Z,942.1
2017-02-10T10:03:58.691Z,942.2
2017-02-10T10:05:06.724Z,942.2
2017-02-10T10:06:14.845Z,942.2
2017-02-10T10:07:23.020Z,942.2
2017-02-10T10:08:31.035Z,942.1
2017-02-10T10:09:39.124Z,942.1
2017-02-10T10:10:47.155Z,942.1
2017-02-10T10:11:55.235Z,942.1
2017-02-10T10:13:03.324Z,942.1
2017-02-10T10:14:11.410Z,942.1
2017-02-10T10:15:19.747Z,942.1
2017-02-10T10:16:27.581Z,942.1
2017-02-10T10:17:35.947Z,942.1
2017-02-10T10:18:43.762Z,942.1
2017-02-10T10:19:51.837Z,942.1
2017-02-10T10:20:59.986Z,942.1
2017-02-10T10:22:08.021Z,942.1
2017-02-10T10:23:16.726Z,942.1
2017-02-10T10:24:26.326Z,942.0
2017-02-10T10:25:32.284Z,942.0
2017-02-10T10:26:40.423Z,942.1
2017-02-10T10:27:48.452Z,942.0
2017-02-10T10:28:56.867Z,942.1
2017-02-10T10:30:04.817Z,942.1
2017-02-10T10:31:12.715Z,942.2
2017-02-10T10:32:22.307Z,942.2
2017-02-10T10:33:28.898Z,942.1
2017-02-10T10:34:36.978Z,942.2
2017-02-10T10:35:45.058Z,942.1
2017-02-10T10:36:53.472Z,942.2
2017-02-10T10:38:01.293Z,942.2
2017-02-10T10:39:09.326Z,942.1
2017-02-10T10:40:17.658Z,942.1
2017-02-10T10:41:25.905Z,942.1
2017-02-10T10:42:33.583Z,942.1
2017-02-10T10:43:41.723Z,942.1
2017-02-10T10:44:50.335Z,942.1
2017-02-10T10:45:57.851Z,942.1
2017-02-10T10:47:05.926Z,942.1
2017-02-10T10:48:14.019Z,942.1
2017-02-10T10:49:24.032Z,942.1
2017-02-10T10:50:30.773Z,942.1
2017-02-10T10:51:38.272Z,942.1
2017-02-10T10:52:46.362Z,942.2
2017-02-10T10:53:54.450Z,942.2
2017-02-10T10:55:02.790Z,942.2
2017-02-10T10:56:10.883Z,942.2
2017-02-10T10:57:18.713Z,942.2
2017-02-10T10:58:26.800Z,942.2
2017-02-10T10:59:34.889Z,942.2
2017-02-10T11:00:43.069Z,942.2
2017-02-10T11:01:51.092Z,942.2
2017-02-10T11:02:59.151Z,942.2
2017-02-10T11:04:07.237Z,942.3
2017-02-10T11:05:15.421Z,942.2
2017-02-10T11:06:23.664Z,942.2
2017-02-10T11:07:31.506Z,942.3
2017-02-10T11:08:39.592Z,942.3
2017-02-10T11:09:47.680Z,942.3
2017-02-10T11:10:56.435Z,942.4
2017-02-10T11:12:05.427Z,942.4
2017-02-10T11:13:11.949Z,942.4
2017-02-10T11:14:20.040Z,942.4
2017-02-10T11:15:28.132Z,942.4
2017-02-10T11:16:36.213Z,942.4
2017-02-10T11:17:44.548Z,942.4
2017-02-10T11:18:52.892Z,942.3
2017-02-10T11:20:00.473Z,942.3
2017-02-10T11:21:09.006Z,942.2
2017-02-10T11:22:16.732Z,942.2
2017-02-10T11:23:25.050Z,942.2
2017-02-10T11:24:32.827Z,942.2
2017-02-10T11:25:41.080Z,942.2
2017-02-10T11:26:48.999Z,942.2
2017-02-10T11:27:57.334Z,942.2
2017-02-10T11:29:07.264Z,942.2
2017-02-10T11:30:13.257Z,942.2
2017-02-10T11:31:21.342Z,942.2
2017-02-10T11:32:29.436Z,942.2
2017-02-10T11:33:37.622Z,942.3
2017-02-10T11:34:45.971Z,942.2
2017-02-10T11:35:53.697Z,942.2
2017-02-10T11:37:01.783Z,942.3
2017-02-10T11:38:09.870Z,942.3
2017-02-10T11:39:17.950Z,942.3
2017-02-10T11:40:26.100Z,942.3
2017-02-10T11:41:34.128Z,942.3
2017-02-10T11:42:42.210Z,942.2
2017-02-10T11:43:50.359Z,942.1
2017-02-10T11:44:58.388Z,942.1
2017-02-10T11:46:07.367Z,942.1
2017-02-10T11:47:14.560Z,942.1
2017-02-10T11:48:22.655Z,942.1
2017-02-10T11:49:30.739Z,942.1
2017-02-10T11:50:38.852Z,942.1
2017-02-10T11:51:47.165Z,942.1
2017-02-10T11:52:55.002Z,942.1
2017-02-10T11:54:03.089Z,942.1
2017-02-10T11:55:11.183Z,942.0
2017-02-10T11:56:19.263Z,942.0
2017-02-10T11:57:27.403Z,942.1
2017-02-10T11:58:35.436Z,942.1
2017-02-10T11:59:43.930Z,942.1
2017-02-10T12:00:51.611Z,942.1
2017-02-10T12:01:59.701Z,942.1
2017-02-10T12:03:08.304Z,942.1
2017-02-10T12:04:15.875Z,942.1
2017-02-10T12:05:23.961Z,942.0
2017-02-10T12:06:32.047Z,942.1
2017-02-10T12:07:40.654Z,942.1
2017-02-10T12:08:48.481Z,942.1
2017-02-10T12:09:56.320Z,942.0
2017-02-10T12:11:04.407Z,941.9
2017-02-10T12:12:12.684Z,941.9
2017-02-10T12:13:20.586Z,941.9
2017-02-10T12:14:29.026Z,941.9
2017-02-10T12:15:37.532Z,941.9
2017-02-10T12:16:44.867Z,941.9
2017-02-10T12:17:53.046Z,941.9
2017-02-10T12:19:01.042Z,941.9
2017-02-10T12:20:09.380Z,941.9
2017-02-10T12:21:17.212Z,942.0
2017-02-10T12:22:25.405Z,942.0
2017-02-10T12:23:33.498Z,942.0
2017-02-10T12:24:41.484Z,942.0
2017-02-10T12:25:49.782Z,942.0
2017-02-10T12:26:57.815Z,942.0
2017-02-10T12:28:05.750Z,942.1
2017-02-10T12:29:13.838Z,942.0
2017-02-10T12:30:21.919Z,942.1
2017-02-10T12:31:30.258Z,942.1
2017-02-10T12:32:38.119Z,942.1
2017-02-10T12:33:46.180Z,942.1
2017-02-10T12:34:54.273Z,942.1
2017-02-10T12:36:02.363Z,942.1
2017-02-10T12:37:10.696Z,942.1
2017-02-10T12:38:18.537Z,942.1
2017-02-10T12:39:26.630Z,942.0
2017-02-10T12:40:34.712Z,942.0
2017-02-10T12:41:42.795Z,942.0
2017-02-10T12:42:50.999Z,942.0
2017-02-10T12:43:59.029Z,942.0
2017-02-10T12:45:07.063Z,942.0
2017-02-10T12:46:15.156Z,942.0
2017-02-10T12:47:23.495Z,942.0
2017-02-10T12:48:31.393Z,942.0
2017-02-10T12:49:39.418Z,942.0
2017-02-10T12:50:47.510Z,942.0
2017-02-10T12:51:55.608Z,942.0
2017-02-10T12:53:03.699Z,942.0
2017-02-10T12:54:11.954Z,942.0
2017-02-10T12:55:19.871Z,941.9
2017-02-10T12:56:27.961Z,942.0
2017-02-10T12:57:36.055Z,942.0
2017-02-10T12:58:44.143Z,942.0
2017-02-10T12:59:52.288Z,942.0
2017-02-10T13:01:00.313Z,942.0
2017-02-10T13:02:08.674Z,942.0
2017-02-10T13:03:16.746Z,942.0
2017-02-10T13:04:24.729Z,941.9
2017-02-10T13:05:32.855Z,942.0
2017-02-10T13:06:40.766Z,942.0
2017-02-10T13:07:48.853Z,942.0
2017-02-10T13:08:57.132Z,942.0
2017-02-10T13:10:05.027Z,942.0
2017-02-10T13:11:13.365Z,942.0
2017-02-10T13:12:21.203Z,942.0
2017-02-10T13:13:29.289Z,942.0
2017-02-10T13:14:37.617Z,942.0
2017-02-10T13:15:45.596Z,942.0
2017-02-10T13:16:53.610Z,941.9
2017-02-10T13:18:01.642Z,941.9
2017-02-10T13:19:09.991Z,941.9
2017-02-10T13:20:18.073Z,941.9
2017-02-10T13:21:25.912Z,941.9
2017-02-10T13:22:34.060Z,941.9
2017-02-10T13:23:42.101Z,941.9
2017-02-10T13:24:50.180Z,941.9
2017-02-10T13:25:58.328Z,941.9
2017-02-10T13:27:06.364Z,941.9
2017-02-10T13:28:14.704Z,942.0
2017-02-10T13:29:22.537Z,942.0
2017-02-10T13:30:30.637Z,941.9
2017-02-10T13:31:38.908Z,941.9
2017-02-10T13:32:46.827Z,941.9
2017-02-10T13:33:55.147Z,942.0
2017-02-10T13:35:03.039Z,942.0
2017-02-10T13:36:11.076Z,942.0
2017-02-10T13:37:19.159Z,941.9
2017-02-10T13:38:27.249Z,942.0
2017-02-10T13:39:35.403Z,942.0
2017-02-10T13:40:43.429Z,942.0
2017-02-10T13:41:51.672Z,942.0
2017-02-10T13:42:59.631Z,942.0
2017-02-10T13:44:07.691Z,942.0
2017-02-10T13:45:16.031Z,942.0
2017-02-10T13:46:23.871Z,942.0
2017-02-10T13:47:31.962Z,942.0
2017-02-10T13:48:40.046Z,942.0
2017-02-10T13:49:48.139Z,942.0
2017-02-10T13:50:56.282Z,942.0
2017-02-10T13:52:04.320Z,942.0
2017-02-10T13:53:12.411Z,942.0
2017-02-10T13:54:20.504Z,942.0
2017-02-10T13:55:28.589Z,942.0
2017-02-10T13:56:36.806Z,942.0
2017-02-10T13:57:44.781Z,942.0
2017-02-10T13:58:52.892Z,942.0
2017-02-10T14:00:00.967Z,942.0
2017-02-10T14:01:09.042Z,942.0
2017-02-10T14:02:17.386Z,942.0
2017-02-10T14:03:25.406Z,941.9
2017-02-10T14:04:33.392Z,941.9
2017-02-10T14:05:41.404Z,942.0
2017-02-10T14:06:49.559Z,942.0
2017-02-10T14:07:57.830Z,942.0
2017-02-10T14:09:05.668Z,942.0
2017-02-10T14:10:13.763Z,942.0
2017-02-10T14:11:21.850Z,942.0
2017-02-10T14:12:29.939Z,942.1
2017-02-10T14:13:38.277Z,942.1
2017-02-10T14:14:46.225Z,942.1
2017-02-10T14:15:54.217Z,942.1
2017-02-10T14:17:02.298Z,942.1
2017-02-10T14:18:10.393Z,942.0
2017-02-10T14:19:18.535Z,942.1
2017-02-10T14:20:26.563Z,942.1
2017-02-10T14:21:34.659Z,942.1
2017-02-10T14:22:42.996Z,942.1
2017-02-10T14:23:50.830Z,942.1
2017-02-10T14:24:59.037Z,942.1
2017-02-10T14:26:07.027Z,942.1
2017-02-10T14:27:15.104Z,942.1
2017-02-10T14:28:23.186Z,942.1
2017-02-10T14:29:31.418Z,942.0
2017-02-10T14:30:39.634Z,942.0
2017-02-10T14:31:47.453Z,942.0
2017-02-10T14:32:55.545Z,942.0
2017-02-10T14:34:03.637Z,942.0
2017-02-10T14:35:11.721Z,942.0
2017-02-10T14:36:19.867Z,942.0